Friday, October 20, 2017, 9:27 PM EDT
Back to Local

KBDR, Sikorsky Memorial Airport

Location: Stratford, CT, United States Lat: 41.167
Local Time: 9:27 PM EDT ( 1:27 GMT) Lon: -73.133
Time Zone: US/Eastern Elev: 9 ft

Show me the last for .
Show Coded

Time T Td Feel RH Dir Speed Gust Alt SLP Vis Weather Sky Remarks
2017-10-20 20:52 58 41 - 53 310° 3 - 30.15 30.14 10 CLR None
2017-10-20 19:52 66 36 - 32 250° 3 - 30.14 30.14 10 CLR 6-hr Min Temp (8pm): 63.0°F
6-hr Max Temp (8pm): 73.9°F
2017-10-20 18:52 67 35 - 30 350° 5 - 30.12 30.12 10 CLR None
2017-10-20 17:52 70 34 - 26 330° 8 - 30.10 30.10 10 CLR None
2017-10-20 16:52 73 34 - 23 320° 14 20 30.08 30.08 10 CLR None
2017-10-20 15:52 74 33 - 22 310° 14 - 30.07 30.07 10 CLR None
2017-10-20 14:52 73 32 - 22 290° 13 - 30.06 30.06 10 CLR None
2017-10-20 13:52 72 30 - 21 310° 15 - 30.07 30.07 10 CLR 6-hr Min Temp (2pm): 55.0°F
6-hr Max Temp (2pm): 72.0°F
2017-10-20 12:52 70 33 - 25 320° 6 16 30.11 30.10 10 CLR None
2017-10-20 11:52 68 34 - 28 310° 12 - 30.12 30.12 10 CLR None
2017-10-20 10:52 66 36 - 32 300° 7 - 30.13 30.13 10 CLR None
2017-10-20 09:52 64 42 - 44 310° 12 - 30.15 30.14 10 CLR None
2017-10-20 08:52 61 46 - 57 310° 9 - 30.13 30.13 10 CLR None
2017-10-20 07:52 55 47 - 74 310° 7 - 30.12 30.11 10 CLR 6-hr Min Temp (8am): 51.1°F
6-hr Max Temp (8am): 60.1°F
2017-10-20 06:52 53 46 - 76 310° 7 - 30.09 30.09 10 CLR None
2017-10-20 05:52 53 46 - 76 300° 6 - 30.08 30.08 10 CLR None
2017-10-20 04:52 55 46 - 71 300° 3 - 30.06 30.06 10 CLR None
2017-10-20 03:52 59 47 - 64 270° 7 - 30.04 30.04 10 CLR None
2017-10-20 02:52 56 47 - 71 280° 3 - 30.05 30.04 10 CLR None
2017-10-20 01:52 60 47 - 61 270° 7 - 30.05 30.05 10 CLR 6-hr Min Temp (2am): 60.1°F
6-hr Max Temp (2am): 64.9°F
2017-10-20 00:52 63 49 - 60 260° 8 - 30.05 30.05 10 CLR 24-hr Min Temp (1am): 48.0°F
24-hr Max Temp (1am): 71.1°F
2017-10-19 23:52 63 49 - 60 250° 9 - 30.05 30.05 10 CLR None
2017-10-19 22:52 63 53 - 70 260° 7 - 30.07 30.06 10 CLR None
2017-10-19 21:52 65 53 - 65 230° 13 - 30.07 30.06 10 CLR None

Support USWX by starting your Amazon purchase here.